Philadelphia, Pennsylvania
Traffic Map
Current Weather Conditions
Philadelphia, Pennsylvania
Overcast
Overcast
73°
Feels Like: 73°
Wind Chill: 73° Ceiling: 8000
Heat Index: 73° Visibility: 10mi
Dew Point: 63° Wind: 3mph
Humidity: 71% Direction: 60° (ENE)
Pressure: 29.9in Gusts: 0mph
Raw Report DataKPHL 021754Z 06003KT 10SM BKN080 OVC250 23/17 A2990 RMK AO2 SLP124 60002 T02280172 10239 20217 58004
Traffic Incident Summary
Active as of:
Severity:
Category:
InformationThere was an issue retrieving the traffic information for this location. Please try a different location or try again shortly.
Advertisements
Track Severe Weather on mobile